sensor_id;sensor_type;location;lat;lon;timestamp;P1;durP1;ratioP1;P2;durP2;ratioP2
56824;SDS011;42705;50.326;18.772;2024-02-21T00:04:10;14.90;;;5.90;;
56824;SDS011;42705;50.326;18.772;2024-02-21T00:09:32;18.30;;;7.10;;
56824;SDS011;42705;50.326;18.772;2024-02-21T00:14:54;19.90;;;7.10;;
56824;SDS011;42705;50.326;18.772;2024-02-21T00:20:16;16.50;;;7.40;;
56824;SDS011;42705;50.326;18.772;2024-02-21T00:25:39;17.00;;;6.80;;
56824;SDS011;42705;50.326;18.772;2024-02-21T00:31:01;22.20;;;8.20;;
56824;SDS011;42705;50.326;18.772;2024-02-21T00:36:24;23.20;;;8.80;;
56824;SDS011;42705;50.326;18.772;2024-02-21T00:41:46;21.20;;;8.90;;
56824;SDS011;42705;50.326;18.772;2024-02-21T00:47:08;25.00;;;8.30;;
56824;SDS011;42705;50.326;18.772;2024-02-21T00:52:29;17.80;;;7.70;;
56824;SDS011;42705;50.326;18.772;2024-02-21T00:57:51;16.00;;;6.10;;
56824;SDS011;42705;50.326;18.772;2024-02-21T01:03:13;17.90;;;6.20;;
56824;SDS011;42705;50.326;18.772;2024-02-21T01:08:35;15.60;;;5.00;;
56824;SDS011;42705;50.326;18.772;2024-02-21T01:13:57;15.50;;;5.40;;
56824;SDS011;42705;50.326;18.772;2024-02-21T01:19:19;12.70;;;4.90;;
56824;SDS011;42705;50.326;18.772;2024-02-21T01:24:42;17.00;;;5.20;;
56824;SDS011;42705;50.326;18.772;2024-02-21T01:30:04;13.80;;;4.90;;
56824;SDS011;42705;50.326;18.772;2024-02-21T01:40:49;17.40;;;5.00;;
56824;SDS011;42705;50.326;18.772;2024-02-21T01:46:11;16.60;;;5.00;;
56824;SDS011;42705;50.326;18.772;2024-02-21T01:51:33;14.40;;;5.70;;
56824;SDS011;42705;50.326;18.772;2024-02-21T01:56:56;12.60;;;4.80;;
56824;SDS011;42705;50.326;18.772;2024-02-21T02:02:17;12.40;;;4.20;;
56824;SDS011;42705;50.326;18.772;2024-02-21T02:07:40;14.60;;;4.90;;
56824;SDS011;42705;50.326;18.772;2024-02-21T02:13:02;15.50;;;5.00;;
56824;SDS011;42705;50.326;18.772;2024-02-21T02:18:24;17.70;;;6.00;;
56824;SDS011;42705;50.326;18.772;2024-02-21T02:23:46;15.80;;;6.50;;
56824;SDS011;42705;50.326;18.772;2024-02-21T02:29:08;15.00;;;5.70;;
56824;SDS011;42705;50.326;18.772;2024-02-21T02:34:34;14.90;;;5.60;;
56824;SDS011;42705;50.326;18.772;2024-02-21T02:39:56;21.60;;;6.10;;
56824;SDS011;42705;50.326;18.772;2024-02-21T02:45:19;15.60;;;5.50;;
56824;SDS011;42705;50.326;18.772;2024-02-21T02:50:41;18.00;;;5.90;;
56824;SDS011;42705;50.326;18.772;2024-02-21T02:56:03;14.10;;;5.60;;
56824;SDS011;42705;50.326;18.772;2024-02-21T03:01:25;16.00;;;5.40;;
56824;SDS011;42705;50.326;18.772;2024-02-21T03:06:47;13.50;;;4.80;;
56824;SDS011;42705;50.326;18.772;2024-02-21T03:12:09;15.90;;;5.80;;
56824;SDS011;42705;50.326;18.772;2024-02-21T03:17:31;18.70;;;5.40;;
56824;SDS011;42705;50.326;18.772;2024-02-21T03:22:55;21.40;;;6.80;;
56824;SDS011;42705;50.326;18.772;2024-02-21T03:28:17;15.40;;;6.70;;
56824;SDS011;42705;50.326;18.772;2024-02-21T03:33:42;15.10;;;6.70;;
56824;SDS011;42705;50.326;18.772;2024-02-21T03:39:05;18.70;;;6.50;;
56824;SDS011;42705;50.326;18.772;2024-02-21T03:44:27;20.10;;;8.70;;
56824;SDS011;42705;50.326;18.772;2024-02-21T03:49:49;20.70;;;9.30;;
56824;SDS011;42705;50.326;18.772;2024-02-21T03:55:11;22.90;;;9.00;;
56824;SDS011;42705;50.326;18.772;2024-02-21T04:00:33;23.40;;;9.50;;
56824;SDS011;42705;50.326;18.772;2024-02-21T04:05:55;19.40;;;9.20;;
56824;SDS011;42705;50.326;18.772;2024-02-21T04:11:17;19.00;;;8.70;;
56824;SDS011;42705;50.326;18.772;2024-02-21T04:22:02;19.60;;;8.80;;
56824;SDS011;42705;50.326;18.772;2024-02-21T04:27:24;19.30;;;8.50;;
56824;SDS011;42705;50.326;18.772;2024-02-21T04:32:46;20.20;;;8.70;;
56824;SDS011;42705;50.326;18.772;2024-02-21T04:38:07;23.10;;;9.90;;
56824;SDS011;42705;50.326;18.772;2024-02-21T04:43:30;27.80;;;10.30;;
56824;SDS011;42705;50.326;18.772;2024-02-21T04:48:53;28.20;;;10.60;;
56824;SDS011;42705;50.326;18.772;2024-02-21T04:54:15;22.20;;;9.90;;
56824;SDS011;42705;50.326;18.772;2024-02-21T04:59:36;24.70;;;10.20;;
56824;SDS011;42705;50.326;18.772;2024-02-21T05:04:58;23.30;;;11.30;;
56824;SDS011;42705;50.326;18.772;2024-02-21T05:10:20;22.70;;;12.10;;
56824;SDS011;42705;50.326;18.772;2024-02-21T05:15:42;21.70;;;9.70;;
56824;SDS011;42705;50.326;18.772;2024-02-21T05:21:04;23.90;;;10.00;;
56824;SDS011;42705;50.326;18.772;2024-02-21T05:26:26;24.90;;;11.70;;
56824;SDS011;42705;50.326;18.772;2024-02-21T05:37:18;28.20;;;13.80;;
56824;SDS011;42705;50.326;18.772;2024-02-21T05:42:40;27.80;;;12.30;;
56824;SDS011;42705;50.326;18.772;2024-02-21T05:48:03;27.70;;;12.80;;
56824;SDS011;42705;50.326;18.772;2024-02-21T05:53:26;24.90;;;12.00;;
56824;SDS011;42705;50.326;18.772;2024-02-21T05:58:47;26.30;;;14.10;;
56824;SDS011;42705;50.326;18.772;2024-02-21T06:04:09;27.90;;;14.50;;
56824;SDS011;42705;50.326;18.772;2024-02-21T06:09:31;24.00;;;13.20;;
56824;SDS011;42705;50.326;18.772;2024-02-21T06:14:53;32.40;;;15.90;;
56824;SDS011;42705;50.326;18.772;2024-02-21T06:20:18;34.40;;;15.60;;
56824;SDS011;42705;50.326;18.772;2024-02-21T06:25:40;30.80;;;16.00;;
56824;SDS011;42705;50.326;18.772;2024-02-21T06:31:02;38.30;;;17.90;;
56824;SDS011;42705;50.326;18.772;2024-02-21T06:36:24;28.50;;;16.00;;
56824;SDS011;42705;50.326;18.772;2024-02-21T06:41:47;27.70;;;17.00;;
56824;SDS011;42705;50.326;18.772;2024-02-21T06:47:09;32.20;;;16.80;;
56824;SDS011;42705;50.326;18.772;2024-02-21T06:52:31;34.90;;;17.10;;
56824;SDS011;42705;50.326;18.772;2024-02-21T06:57:53;34.60;;;17.70;;
56824;SDS011;42705;50.326;18.772;2024-02-21T07:03:14;32.00;;;17.40;;
56824;SDS011;42705;50.326;18.772;2024-02-21T07:08:36;42.10;;;20.00;;
56824;SDS011;42705;50.326;18.772;2024-02-21T07:13:59;28.50;;;16.30;;
56824;SDS011;42705;50.326;18.772;2024-02-21T07:19:20;31.80;;;17.10;;
56824;SDS011;42705;50.326;18.772;2024-02-21T07:24:42;30.70;;;15.60;;
56824;SDS011;42705;50.326;18.772;2024-02-21T07:30:05;24.00;;;14.20;;
56824;SDS011;42705;50.326;18.772;2024-02-21T07:35:27;24.10;;;14.10;;
56824;SDS011;42705;50.326;18.772;2024-02-21T07:40:49;29.80;;;14.70;;
56824;SDS011;42705;50.326;18.772;2024-02-21T07:46:11;28.10;;;15.10;;
56824;SDS011;42705;50.326;18.772;2024-02-21T07:51:33;26.20;;;15.00;;
56824;SDS011;42705;50.326;18.772;2024-02-21T07:56:55;27.40;;;13.40;;
56824;SDS011;42705;50.326;18.772;2024-02-21T08:02:17;22.80;;;11.90;;
56824;SDS011;42705;50.326;18.772;2024-02-21T08:07:39;29.20;;;12.80;;
56824;SDS011;42705;50.326;18.772;2024-02-21T08:13:02;28.20;;;13.80;;
56824;SDS011;42705;50.326;18.772;2024-02-21T08:18:25;23.50;;;11.80;;
56824;SDS011;42705;50.326;18.772;2024-02-21T08:23:47;25.20;;;13.90;;
56824;SDS011;42705;50.326;18.772;2024-02-21T08:29:16;23.80;;;12.90;;
56824;SDS011;42705;50.326;18.772;2024-02-21T08:34:38;22.30;;;12.20;;
56824;SDS011;42705;50.326;18.772;2024-02-21T08:40:00;22.00;;;11.40;;
56824;SDS011;42705;50.326;18.772;2024-02-21T08:45:29;26.10;;;12.40;;
56824;SDS011;42705;50.326;18.772;2024-02-21T08:50:52;28.50;;;11.80;;
56824;SDS011;42705;50.326;18.772;2024-02-21T09:01:37;26.80;;;12.10;;
56824;SDS011;42705;50.326;18.772;2024-02-21T09:06:59;21.50;;;10.40;;
56824;SDS011;42705;50.326;18.772;2024-02-21T09:12:21;29.00;;;11.10;;
56824;SDS011;42705;50.326;18.772;2024-02-21T09:17:43;20.80;;;9.10;;
56824;SDS011;42705;50.326;18.772;2024-02-21T09:23:05;25.50;;;10.20;;
56824;SDS011;42705;50.326;18.772;2024-02-21T09:28:27;21.40;;;10.30;;
56824;SDS011;42705;50.326;18.772;2024-02-21T09:33:49;23.00;;;9.90;;
56824;SDS011;42705;50.326;18.772;2024-02-21T09:39:11;20.10;;;8.50;;
56824;SDS011;42705;50.326;18.772;2024-02-21T09:44:36;17.80;;;8.50;;
56824;SDS011;42705;50.326;18.772;2024-02-21T09:50:00;17.10;;;8.10;;
56824;SDS011;42705;50.326;18.772;2024-02-21T09:55:25;17.90;;;8.30;;
56824;SDS011;42705;50.326;18.772;2024-02-21T10:00:49;16.50;;;8.20;;
56824;SDS011;42705;50.326;18.772;2024-02-21T10:06:10;18.40;;;7.20;;
56824;SDS011;42705;50.326;18.772;2024-02-21T10:11:32;13.60;;;7.20;;
56824;SDS011;42705;50.326;18.772;2024-02-21T10:16:57;19.00;;;6.60;;
56824;SDS011;42705;50.326;18.772;2024-02-21T10:22:25;10.70;;;5.70;;
56824;SDS011;42705;50.326;18.772;2024-02-21T10:27:47;13.90;;;5.90;;
56824;SDS011;42705;50.326;18.772;2024-02-21T10:33:11;17.40;;;6.40;;
56824;SDS011;42705;50.326;18.772;2024-02-21T10:38:38;15.30;;;5.60;;
56824;SDS011;42705;50.326;18.772;2024-02-21T10:44:00;11.40;;;4.70;;
56824;SDS011;42705;50.326;18.772;2024-02-21T10:49:27;13.70;;;5.90;;
56824;SDS011;42705;50.326;18.772;2024-02-21T10:55:03;17.90;;;5.60;;
56824;SDS011;42705;50.326;18.772;2024-02-21T11:00:26;16.00;;;6.10;;
56824;SDS011;42705;50.326;18.772;2024-02-21T11:05:51;14.50;;;5.10;;
56824;SDS011;42705;50.326;18.772;2024-02-21T11:11:14;12.20;;;4.60;;
56824;SDS011;42705;50.326;18.772;2024-02-21T11:16:41;10.60;;;4.40;;
56824;SDS011;42705;50.326;18.772;2024-02-21T11:22:04;14.80;;;5.50;;
56824;SDS011;42705;50.326;18.772;2024-02-21T11:27:39;13.50;;;4.10;;
56824;SDS011;42705;50.326;18.772;2024-02-21T11:33:07;13.20;;;4.20;;
56824;SDS011;42705;50.326;18.772;2024-02-21T11:38:29;6.80;;;3.80;;
56824;SDS011;42705;50.326;18.772;2024-02-21T11:43:51;13.70;;;4.30;;
56824;SDS011;42705;50.326;18.772;2024-02-21T11:49:13;16.20;;;4.90;;
56824;SDS011;42705;50.326;18.772;2024-02-21T11:54:35;11.20;;;5.10;;
56824;SDS011;42705;50.326;18.772;2024-02-21T11:59:57;13.40;;;5.50;;
56824;SDS011;42705;50.326;18.772;2024-02-21T12:05:21;8.20;;;3.90;;
56824;SDS011;42705;50.326;18.772;2024-02-21T12:10:44;11.10;;;4.50;;
56824;SDS011;42705;50.326;18.772;2024-02-21T12:16:47;10.10;;;4.60;;
56824;SDS011;42705;50.326;18.772;2024-02-21T12:22:15;11.30;;;5.20;;
56824;SDS011;42705;50.326;18.772;2024-02-21T12:27:38;12.40;;;5.70;;
56824;SDS011;42705;50.326;18.772;2024-02-21T12:33:00;16.00;;;5.10;;
56824;SDS011;42705;50.326;18.772;2024-02-21T12:38:23;9.40;;;4.70;;
56824;SDS011;42705;50.326;18.772;2024-02-21T12:43:45;15.30;;;6.20;;
56824;SDS011;42705;50.326;18.772;2024-02-21T12:49:07;11.80;;;5.60;;
56824;SDS011;42705;50.326;18.772;2024-02-21T12:54:32;13.80;;;5.50;;
56824;SDS011;42705;50.326;18.772;2024-02-21T12:59:54;15.10;;;6.30;;
56824;SDS011;42705;50.326;18.772;2024-02-21T13:05:16;16.20;;;7.60;;
56824;SDS011;42705;50.326;18.772;2024-02-21T13:10:38;14.20;;;6.90;;
56824;SDS011;42705;50.326;18.772;2024-02-21T13:16:00;15.60;;;6.10;;
56824;SDS011;42705;50.326;18.772;2024-02-21T13:21:22;15.30;;;6.60;;
56824;SDS011;42705;50.326;18.772;2024-02-21T13:26:44;19.40;;;8.20;;
56824;SDS011;42705;50.326;18.772;2024-02-21T13:32:06;16.50;;;7.10;;
56824;SDS011;42705;50.326;18.772;2024-02-21T13:37:28;19.10;;;7.40;;
56824;SDS011;42705;50.326;18.772;2024-02-21T13:42:51;17.70;;;8.50;;
56824;SDS011;42705;50.326;18.772;2024-02-21T13:48:16;22.40;;;8.80;;
56824;SDS011;42705;50.326;18.772;2024-02-21T13:59:23;16.30;;;7.80;;
56824;SDS011;42705;50.326;18.772;2024-02-21T14:04:45;15.60;;;8.50;;
56824;SDS011;42705;50.326;18.772;2024-02-21T14:10:07;29.50;;;9.60;;
56824;SDS011;42705;50.326;18.772;2024-02-21T14:15:31;20.60;;;8.20;;
56824;SDS011;42705;50.326;18.772;2024-02-21T14:20:59;17.60;;;8.30;;
56824;SDS011;42705;50.326;18.772;2024-02-21T14:26:21;20.60;;;7.90;;
56824;SDS011;42705;50.326;18.772;2024-02-21T14:31:52;23.30;;;9.70;;
56824;SDS011;42705;50.326;18.772;2024-02-21T14:37:16;14.30;;;6.90;;
56824;SDS011;42705;50.326;18.772;2024-02-21T14:42:38;18.90;;;7.60;;
56824;SDS011;42705;50.326;18.772;2024-02-21T14:48:01;16.00;;;6.50;;
56824;SDS011;42705;50.326;18.772;2024-02-21T14:53:23;19.70;;;6.70;;
56824;SDS011;42705;50.326;18.772;2024-02-21T14:58:46;20.60;;;7.20;;
56824;SDS011;42705;50.326;18.772;2024-02-21T15:04:08;18.30;;;7.60;;
56824;SDS011;42705;50.326;18.772;2024-02-21T15:09:30;16.80;;;6.40;;
56824;SDS011;42705;50.326;18.772;2024-02-21T15:14:52;18.40;;;7.10;;
56824;SDS011;42705;50.326;18.772;2024-02-21T15:20:14;17.30;;;7.00;;
56824;SDS011;42705;50.326;18.772;2024-02-21T15:30:58;17.10;;;7.50;;
56824;SDS011;42705;50.326;18.772;2024-02-21T15:36:20;22.80;;;9.20;;
56824;SDS011;42705;50.326;18.772;2024-02-21T15:41:42;18.40;;;8.00;;
56824;SDS011;42705;50.326;18.772;2024-02-21T15:47:04;17.00;;;8.10;;
56824;SDS011;42705;50.326;18.772;2024-02-21T15:52:26;18.30;;;6.80;;
56824;SDS011;42705;50.326;18.772;2024-02-21T15:57:48;18.60;;;7.80;;
56824;SDS011;42705;50.326;18.772;2024-02-21T16:03:10;16.90;;;7.60;;
56824;SDS011;42705;50.326;18.772;2024-02-21T16:08:33;14.60;;;7.70;;
56824;SDS011;42705;50.326;18.772;2024-02-21T16:14:00;20.70;;;7.80;;
56824;SDS011;42705;50.326;18.772;2024-02-21T16:19:25;16.10;;;7.20;;
56824;SDS011;42705;50.326;18.772;2024-02-21T16:24:47;18.30;;;8.40;;
56824;SDS011;42705;50.326;18.772;2024-02-21T16:30:10;15.60;;;7.50;;
56824;SDS011;42705;50.326;18.772;2024-02-21T16:35:32;19.80;;;8.60;;
56824;SDS011;42705;50.326;18.772;2024-02-21T16:40:54;17.40;;;7.70;;
56824;SDS011;42705;50.326;18.772;2024-02-21T16:46:16;21.30;;;7.90;;
56824;SDS011;42705;50.326;18.772;2024-02-21T16:51:40;17.60;;;7.60;;
56824;SDS011;42705;50.326;18.772;2024-02-21T16:57:02;17.70;;;7.70;;
56824;SDS011;42705;50.326;18.772;2024-02-21T17:02:24;22.30;;;8.80;;
56824;SDS011;42705;50.326;18.772;2024-02-21T17:14:03;23.70;;;9.30;;
56824;SDS011;42705;50.326;18.772;2024-02-21T17:19:25;24.20;;;9.60;;
56824;SDS011;42705;50.326;18.772;2024-02-21T17:24:46;18.20;;;9.20;;
56824;SDS011;42705;50.326;18.772;2024-02-21T17:30:09;21.80;;;10.70;;
56824;SDS011;42705;50.326;18.772;2024-02-21T17:35:31;28.30;;;11.00;;
56824;SDS011;42705;50.326;18.772;2024-02-21T17:40:56;27.70;;;11.40;;
56824;SDS011;42705;50.326;18.772;2024-02-21T17:46:18;17.70;;;9.80;;
56824;SDS011;42705;50.326;18.772;2024-02-21T17:51:42;22.80;;;10.50;;
56824;SDS011;42705;50.326;18.772;2024-02-21T18:02:28;22.60;;;11.10;;
56824;SDS011;42705;50.326;18.772;2024-02-21T18:07:50;29.90;;;11.60;;
56824;SDS011;42705;50.326;18.772;2024-02-21T18:13:12;24.60;;;10.00;;
56824;SDS011;42705;50.326;18.772;2024-02-21T18:18:35;21.50;;;8.70;;
56824;SDS011;42705;50.326;18.772;2024-02-21T18:23:57;25.60;;;10.30;;
56824;SDS011;42705;50.326;18.772;2024-02-21T18:29:19;25.40;;;11.50;;
56824;SDS011;42705;50.326;18.772;2024-02-21T18:40:06;22.20;;;9.80;;
56824;SDS011;42705;50.326;18.772;2024-02-21T18:45:33;21.70;;;10.70;;
56824;SDS011;42705;50.326;18.772;2024-02-21T18:50:55;22.60;;;9.60;;
56824;SDS011;42705;50.326;18.772;2024-02-21T18:56:17;25.30;;;9.40;;
56824;SDS011;42705;50.326;18.772;2024-02-21T19:01:39;23.50;;;10.80;;
56824;SDS011;42705;50.326;18.772;2024-02-21T19:07:01;27.40;;;13.00;;
56824;SDS011;42705;50.326;18.772;2024-02-21T19:12:23;33.60;;;12.60;;
56824;SDS011;42705;50.326;18.772;2024-02-21T19:17:45;26.60;;;12.60;;
56824;SDS011;42705;50.326;18.772;2024-02-21T19:23:07;24.50;;;11.80;;
56824;SDS011;42705;50.326;18.772;2024-02-21T19:28:30;23.70;;;10.40;;
56824;SDS011;42705;50.326;18.772;2024-02-21T19:33:52;19.20;;;10.10;;
56824;SDS011;42705;50.326;18.772;2024-02-21T19:39:15;32.30;;;13.10;;
56824;SDS011;42705;50.326;18.772;2024-02-21T19:44:37;27.60;;;12.00;;
56824;SDS011;42705;50.326;18.772;2024-02-21T19:49:59;28.20;;;12.30;;
56824;SDS011;42705;50.326;18.772;2024-02-21T19:55:22;24.30;;;12.10;;
56824;SDS011;42705;50.326;18.772;2024-02-21T20:00:44;27.50;;;12.20;;
56824;SDS011;42705;50.326;18.772;2024-02-21T20:06:06;29.20;;;12.40;;
56824;SDS011;42705;50.326;18.772;2024-02-21T20:11:28;31.40;;;13.50;;
56824;SDS011;42705;50.326;18.772;2024-02-21T20:16:51;60.80;;;24.20;;
56824;SDS011;42705;50.326;18.772;2024-02-21T20:22:13;25.60;;;11.70;;
56824;SDS011;42705;50.326;18.772;2024-02-21T20:27:35;24.30;;;11.40;;
56824;SDS011;42705;50.326;18.772;2024-02-21T20:32:59;23.20;;;11.30;;
56824;SDS011;42705;50.326;18.772;2024-02-21T20:38:22;32.20;;;13.10;;
56824;SDS011;42705;50.326;18.772;2024-02-21T20:43:45;26.60;;;12.10;;
56824;SDS011;42705;50.326;18.772;2024-02-21T20:49:07;25.30;;;11.20;;
56824;SDS011;42705;50.326;18.772;2024-02-21T20:54:29;26.10;;;11.50;;
56824;SDS011;42705;50.326;18.772;2024-02-21T20:59:51;27.80;;;12.40;;
56824;SDS011;42705;50.326;18.772;2024-02-21T21:05:13;20.70;;;11.20;;
56824;SDS011;42705;50.326;18.772;2024-02-21T21:10:36;24.00;;;12.50;;
56824;SDS011;42705;50.326;18.772;2024-02-21T21:15:57;38.20;;;13.80;;
56824;SDS011;42705;50.326;18.772;2024-02-21T21:21:19;26.10;;;10.80;;
56824;SDS011;42705;50.326;18.772;2024-02-21T21:26:42;24.50;;;11.90;;
56824;SDS011;42705;50.326;18.772;2024-02-21T21:32:05;27.60;;;12.30;;
56824;SDS011;42705;50.326;18.772;2024-02-21T21:37:27;28.10;;;12.60;;
56824;SDS011;42705;50.326;18.772;2024-02-21T21:42:50;31.10;;;13.40;;
56824;SDS011;42705;50.326;18.772;2024-02-21T21:48:12;30.30;;;13.20;;
56824;SDS011;42705;50.326;18.772;2024-02-21T21:53:34;27.20;;;12.00;;
56824;SDS011;42705;50.326;18.772;2024-02-21T21:58:57;26.50;;;11.50;;
56824;SDS011;42705;50.326;18.772;2024-02-21T22:04:19;30.50;;;13.10;;
56824;SDS011;42705;50.326;18.772;2024-02-21T22:09:40;27.30;;;12.40;;
56824;SDS011;42705;50.326;18.772;2024-02-21T22:15:03;31.60;;;12.20;;
56824;SDS011;42705;50.326;18.772;2024-02-21T22:20:28;32.40;;;13.40;;
56824;SDS011;42705;50.326;18.772;2024-02-21T22:25:55;27.10;;;12.40;;
56824;SDS011;42705;50.326;18.772;2024-02-21T22:31:17;24.90;;;11.60;;
56824;SDS011;42705;50.326;18.772;2024-02-21T22:36:39;29.40;;;12.70;;
56824;SDS011;42705;50.326;18.772;2024-02-21T22:42:01;30.30;;;12.60;;
56824;SDS011;42705;50.326;18.772;2024-02-21T22:47:23;25.30;;;12.00;;
56824;SDS011;42705;50.326;18.772;2024-02-21T22:52:45;27.90;;;11.90;;
56824;SDS011;42705;50.326;18.772;2024-02-21T22:58:07;26.90;;;10.80;;
56824;SDS011;42705;50.326;18.772;2024-02-21T23:03:29;24.90;;;11.50;;
56824;SDS011;42705;50.326;18.772;2024-02-21T23:08:51;24.80;;;11.60;;
56824;SDS011;42705;50.326;18.772;2024-02-21T23:14:15;22.70;;;10.70;;
56824;SDS011;42705;50.326;18.772;2024-02-21T23:19:39;18.70;;;9.60;;
56824;SDS011;42705;50.326;18.772;2024-02-21T23:25:01;23.50;;;11.60;;
56824;SDS011;42705;50.326;18.772;2024-02-21T23:30:23;26.80;;;10.90;;
56824;SDS011;42705;50.326;18.772;2024-02-21T23:35:44;21.10;;;9.80;;
56824;SDS011;42705;50.326;18.772;2024-02-21T23:41:06;20.70;;;10.20;;
56824;SDS011;42705;50.326;18.772;2024-02-21T23:46:28;24.20;;;10.60;;
56824;SDS011;42705;50.326;18.772;2024-02-21T23:51:50;25.10;;;9.50;;
56824;SDS011;42705;50.326;18.772;2024-02-21T23:57:13;26.30;;;11.20;;
